Terminal Aerodrome Forecast
Issued by NWS

Home | Current Version | Previous Version | Graphics & Text | Print | Product List | Glossary On
Versions: 1 2 3 4 5 6 7 8 9 10 11 12 13
000
FTUS41 KCLE 221913 AAA
TAFFDY
TAF AMD
KFDY 221913Z 2219/2318 04014KT P6SM SCT050
     FM230000 03005KT P6SM FEW250
     FM231500 36004KT P6SM SCT040=

USA.gov is the U.S. government's official web portal to all federal, state and local government web resources and services.